Newbern, Tennessee
Current Conditions -  °F | °C
As of 11:15 PM on Friday 28 Nov 2014 (Local Time) from KDYR Reporting Station
Clear Clear  
Wind Chill: 40°   Ceiling: Unl
Heat Index: 43°   Visibility: 10mi
Dew Point: 21°   Wind: 5mph
Humidity: 42%   Direction: 170°S
Pressure: 30.08"   Gusts: NA
Location:  36.11°N, 89.26°W
Report Text: KDYR 290515Z 17004KT 10SM CLR 06/M06 A3008 RMK AO1
Loading
Personal Weather Stations






























Interactive Weather Map New forecast layout! Learn more

10-Day Weather Forecast

Advertisements
Track Severe Weather on mobile